Terminal Aerodrome Forecast
Issued by NWS

Home | Current Version | Previous Version | Text Only | Print | Product List | Glossary On
Versions: 1 2 3 4 5 6 7 8 9 10 11 12 13 14 15 16 17 18 19 20
000
FTUS44 KHGX 231451 AAA
TAFSGR
TAF AMD
KSGR 231451Z 2315/2412 11006KT P6SM SCT020
     FM232100 13008KT P6SM SCT040
     FM240000 13004KT P6SM SCT250
      AMD NOT SKED=

USA.gov is the U.S. government's official web portal to all federal, state and local government web resources and services.